createdAt,value
2022-12-19T00:01:32.461Z,101730.38
2022-12-19T00:04:00.459Z,101729.84
2022-12-19T00:06:27.614Z,101727.50
2022-12-19T00:08:54.423Z,101729.30
2022-12-19T00:11:21.371Z,101728.16
2022-12-19T00:13:48.023Z,101731.70
2022-12-19T00:16:18.837Z,101735.41
2022-12-19T00:18:46.487Z,101734.27
2022-12-19T00:21:14.919Z,101736.17
2022-12-19T00:23:41.612Z,101732.35
2022-12-19T00:26:08.911Z,101730.89
2022-12-19T00:28:35.637Z,101728.24
2022-12-19T00:31:03.119Z,101738.16
2022-12-19T00:33:30.016Z,101747.19
2022-12-19T00:36:01.175Z,101748.37
2022-12-19T00:38:27.874Z,101750.95
2022-12-19T00:40:54.574Z,101757.81
2022-12-19T00:43:21.730Z,101761.27
2022-12-19T00:45:48.402Z,101768.02
2022-12-19T00:48:16.046Z,101762.88
2022-12-19T00:50:45.964Z,101764.30
2022-12-19T00:53:13.676Z,101763.60
2022-12-19T00:55:40.271Z,101761.09
2022-12-19T00:58:06.916Z,101756.02
2022-12-19T01:00:33.657Z,101754.38
2022-12-19T01:03:00.333Z,101753.44
2022-12-19T01:05:29.317Z,101752.40
2022-12-19T01:07:55.973Z,101743.09
2022-12-19T01:10:23.494Z,101755.14
2022-12-19T01:14:45.162Z,101760.98
2022-12-19T01:17:11.934Z,101770.22
2022-12-19T01:19:43.575Z,101771.59
2022-12-19T01:22:12.397Z,101778.92
2022-12-19T01:24:39.083Z,101782.72
2022-12-19T01:27:05.717Z,101788.22
2022-12-19T01:29:32.801Z,101787.69
2022-12-19T01:32:01.319Z,101790.23
2022-12-19T01:34:31.656Z,101792.13
2022-12-19T01:36:58.357Z,101796.18
2022-12-19T01:39:25.838Z,101798.48
2022-12-19T01:41:55.773Z,101798.08
2022-12-19T01:44:24.130Z,101796.57
2022-12-19T01:46:52.780Z,101792.88
2022-12-19T01:49:30.768Z,101796.66
2022-12-19T01:51:59.159Z,101799.82
2022-12-19T01:54:29.612Z,101797.63
2022-12-19T01:56:57.469Z,101794.39
2022-12-19T01:59:27.542Z,101792.19
2022-12-19T02:01:56.623Z,101791.67
2022-12-19T02:04:25.290Z,101796.09
2022-12-19T02:06:52.311Z,101800.84
2022-12-19T02:09:19.256Z,101804.19
2022-12-19T02:11:46.094Z,101803.73
2022-12-19T02:14:12.922Z,101803.52
2022-12-19T02:16:47.585Z,101806.66
2022-12-19T02:19:33.545Z,101801.68
2022-12-19T02:22:16.114Z,101807.13
2022-12-19T02:25:07.430Z,101814.45
2022-12-19T02:27:46.049Z,101814.14
2022-12-19T02:30:16.377Z,101810.47
2022-12-19T02:32:48.710Z,101810.20
2022-12-19T02:35:29.450Z,101811.23
2022-12-19T02:38:42.016Z,101813.52
2022-12-19T02:41:13.265Z,101819.20
2022-12-19T02:43:41.795Z,101828.33
2022-12-19T02:46:08.819Z,101831.73
2022-12-19T02:48:35.559Z,101837.91
2022-12-19T02:51:03.087Z,101838.30
2022-12-19T02:53:31.997Z,101845.98
2022-12-19T02:56:05.613Z,101846.61
2022-12-19T02:58:49.923Z,101851.02
2022-12-19T03:01:41.667Z,101859.25
2022-12-19T03:04:14.695Z,101863.34
2022-12-19T03:06:49.151Z,101861.96
2022-12-19T03:09:52.988Z,101865.89
2022-12-19T03:12:30.777Z,101862.23
2022-12-19T03:14:57.635Z,101866.44
2022-12-19T03:17:25.725Z,101865.75
2022-12-19T03:19:52.405Z,101864.71
2022-12-19T03:22:19.038Z,101855.07
2022-12-19T03:24:46.095Z,101846.89
2022-12-19T03:27:42.224Z,101844.73
2022-12-19T03:30:11.274Z,101845.05
2022-12-19T03:32:38.678Z,101845.52
2022-12-19T03:35:17.245Z,101844.13
2022-12-19T03:37:43.970Z,101844.29
2022-12-19T03:40:16.375Z,101851.27
2022-12-19T03:43:01.699Z,101850.23
2022-12-19T03:45:54.674Z,101850.46
2022-12-19T03:48:45.394Z,101848.90
2022-12-19T03:51:18.488Z,101852.87
2022-12-19T03:54:07.039Z,101857.70
2022-12-19T03:57:07.694Z,101854.59
2022-12-19T03:59:57.526Z,101856.52
2022-12-19T04:02:24.263Z,101857.83
2022-12-19T04:04:58.775Z,101860.89
2022-12-19T04:07:26.054Z,101863.88
2022-12-19T04:09:52.706Z,101858.10
2022-12-19T04:12:21.764Z,101851.95
2022-12-19T04:14:48.442Z,101848.94
2022-12-19T04:17:24.908Z,101851.61
2022-12-19T04:19:56.437Z,101852.34
2022-12-19T04:22:36.068Z,101841.38
2022-12-19T04:25:03.803Z,101846.48
2022-12-19T04:27:34.430Z,101855.05
2022-12-19T04:30:01.153Z,101860.33
2022-12-19T04:32:27.867Z,101861.30
2022-12-19T04:34:54.542Z,101863.38
2022-12-19T04:37:21.224Z,101864.61
2022-12-19T04:39:47.890Z,101868.15
2022-12-19T04:42:14.541Z,101870.61
2022-12-19T04:44:41.225Z,101876.33
2022-12-19T04:47:07.900Z,101880.39
2022-12-19T04:49:34.636Z,101888.09
2022-12-19T04:52:01.311Z,101895.87
2022-12-19T04:54:28.005Z,101906.80
2022-12-19T04:56:55.382Z,101908.30
2022-12-19T04:59:22.012Z,101909.41
2022-12-19T05:01:48.737Z,101906.27
2022-12-19T05:04:15.489Z,101908.42
2022-12-19T05:06:42.137Z,101907.97
2022-12-19T05:09:10.417Z,101910.84
2022-12-19T05:11:37.232Z,101910.54
2022-12-19T05:14:03.886Z,101911.94
2022-12-19T05:16:30.589Z,101918.65
2022-12-19T05:18:57.291Z,101918.18
2022-12-19T05:21:24.074Z,101918.55
2022-12-19T05:23:51.250Z,101927.82
2022-12-19T05:26:17.980Z,101932.53
2022-12-19T05:28:44.624Z,101934.60
2022-12-19T05:31:15.655Z,101936.89
2022-12-19T05:33:42.595Z,101943.64
2022-12-19T05:36:10.067Z,101952.73
2022-12-19T05:38:36.885Z,101949.49
2022-12-19T05:41:11.152Z,101951.11
2022-12-19T05:43:37.781Z,101948.75
2022-12-19T05:46:05.193Z,101945.33
2022-12-19T05:48:31.865Z,101944.59
2022-12-19T05:50:58.565Z,101940.73
2022-12-19T05:53:27.491Z,101944.41
2022-12-19T05:56:11.900Z,101951.05
2022-12-19T05:58:39.102Z,101951.40
2022-12-19T06:01:11.343Z,101948.32
2022-12-19T06:03:38.053Z,101953.15
2022-12-19T06:06:05.662Z,101953.65
2022-12-19T06:08:32.384Z,101952.57
2022-12-19T06:11:03.221Z,101954.72
2022-12-19T06:13:29.942Z,101966.27
2022-12-19T06:16:04.151Z,101969.92
2022-12-19T06:18:31.080Z,101972.96
2022-12-19T06:21:02.633Z,101971.93
2022-12-19T06:23:30.320Z,101979.94
2022-12-19T06:25:57.791Z,101981.20
2022-12-19T06:28:25.007Z,101969.65
2022-12-19T06:30:51.734Z,101965.88
2022-12-19T06:33:18.515Z,101969.77
2022-12-19T06:35:45.143Z,101982.42
2022-12-19T06:38:11.838Z,101983.51
2022-12-19T06:41:03.278Z,101983.82
2022-12-19T06:43:30.055Z,101990.17
2022-12-19T06:45:57.023Z,101985.98
2022-12-19T06:48:23.846Z,101985.67
2022-12-19T06:50:50.391Z,101990.58
2022-12-19T06:53:17.045Z,101989.67
2022-12-19T06:55:48.642Z,102000.19
2022-12-19T06:58:17.339Z,101994.98
2022-12-19T07:00:46.926Z,101991.38
2022-12-19T07:03:14.161Z,101987.13
2022-12-19T07:05:40.863Z,101981.38
2022-12-19T07:08:10.839Z,101971.39
2022-12-19T07:10:37.628Z,101970.51
2022-12-19T07:13:04.623Z,101973.90
2022-12-19T07:15:31.980Z,101978.25
2022-12-19T07:17:59.597Z,101980.89
2022-12-19T07:20:26.272Z,101980.55
2022-12-19T07:22:53.827Z,101990.58
2022-12-19T07:25:20.535Z,101988.95
2022-12-19T07:27:47.481Z,101987.27
2022-12-19T07:30:14.200Z,101995.95
2022-12-19T07:32:40.917Z,102000.08
2022-12-19T07:35:08.096Z,101996.55
2022-12-19T07:37:34.865Z,102008.27
2022-12-19T07:40:01.590Z,102013.81
2022-12-19T07:42:32.464Z,102021.52
2022-12-19T07:45:01.435Z,102022.27
2022-12-19T07:47:28.203Z,102013.70
2022-12-19T07:49:54.843Z,102018.59
2022-12-19T07:52:21.612Z,102021.73
2022-12-19T07:54:48.307Z,102024.31
2022-12-19T07:57:14.940Z,102031.65
2022-12-19T07:59:41.603Z,102043.06
2022-12-19T08:02:08.435Z,102049.83
2022-12-19T08:04:35.127Z,102058.17
2022-12-19T08:07:02.437Z,102061.63
2022-12-19T08:09:29.227Z,102067.39
2022-12-19T08:11:55.849Z,102074.36
2022-12-19T08:14:22.527Z,102071.39
2022-12-19T08:17:19.296Z,102071.58
2022-12-19T08:19:35.964Z,102073.37
2022-12-19T08:22:02.649Z,102062.48
2022-12-19T08:24:30.882Z,102063.35
2022-12-19T08:26:57.661Z,102068.45
2022-12-19T08:29:24.242Z,102064.71
2022-12-19T08:31:51.028Z,102066.15
2022-12-19T08:34:17.712Z,102066.71
2022-12-19T08:36:44.355Z,102066.96
2022-12-19T08:39:11.269Z,102059.67
2022-12-19T08:41:38.074Z,102057.92
2022-12-19T08:44:04.799Z,102055.52
2022-12-19T08:46:31.547Z,102059.31
2022-12-19T08:48:58.449Z,102060.36
2022-12-19T08:51:27.120Z,102058.71
2022-12-19T08:53:53.860Z,102060.43
2022-12-19T08:56:21.717Z,102052.14
2022-12-19T08:58:48.605Z,102043.97
2022-12-19T09:01:16.328Z,102045.70
2022-12-19T09:04:11.484Z,102051.56
2022-12-19T09:06:29.800Z,102049.19
2022-12-19T09:09:00.149Z,102040.09
2022-12-19T09:11:27.330Z,102034.08
2022-12-19T09:13:55.553Z,102036.23
2022-12-19T09:16:22.795Z,102033.90
2022-12-19T09:18:51.048Z,102028.40
2022-12-19T09:21:18.957Z,102037.04
2022-12-19T09:23:53.530Z,102037.14
2022-12-19T09:26:21.237Z,102037.09
2022-12-19T09:28:49.829Z,102028.94
2022-12-19T09:31:18.544Z,102031.06
2022-12-19T09:33:45.302Z,102037.95
2022-12-19T09:36:16.214Z,102043.51
2022-12-19T09:38:43.131Z,102047.95
2022-12-19T09:41:24.458Z,102056.80
2022-12-19T09:44:11.975Z,102067.38
2022-12-19T09:46:57.649Z,102074.55
2022-12-19T09:49:43.319Z,102078.88
2022-12-19T09:52:33.400Z,102078.64
2022-12-19T09:55:04.944Z,102074.63
2022-12-19T09:57:41.002Z,102069.73
2022-12-19T10:00:13.908Z,102062.19
2022-12-19T10:03:00.658Z,102062.57
2022-12-19T10:06:47.837Z,102056.98
2022-12-19T10:10:36.276Z,102046.97
2022-12-19T10:12:39.410Z,102034.88
2022-12-19T10:14:36.708Z,102028.14
2022-12-19T10:17:24.582Z,102031.98
2022-12-19T10:20:16.671Z,102033.70
2022-12-19T10:23:08.585Z,102030.39
2022-12-19T10:25:37.445Z,102025.18
2022-12-19T10:28:24.417Z,102024.34
2022-12-19T10:31:09.054Z,102027.94
2022-12-19T10:33:47.557Z,102024.05
2022-12-19T10:36:15.559Z,102028.52
2022-12-19T10:38:58.318Z,102025.47
2022-12-19T10:41:27.972Z,102017.84
2022-12-19T10:44:05.791Z,102019.91
2022-12-19T10:46:49.208Z,102022.54
2022-12-19T10:49:17.750Z,102019.59
2022-12-19T10:52:05.311Z,102015.74
2022-12-19T10:54:38.422Z,102010.06
2022-12-19T10:57:24.575Z,102005.55
2022-12-19T11:00:15.279Z,102004.02
2022-12-19T11:02:45.541Z,101998.73
2022-12-19T11:05:27.198Z,101994.55
2022-12-19T11:08:06.192Z,101997.91
2022-12-19T11:12:19.498Z,101992.56
2022-12-19T11:19:25.179Z,101997.98
2022-12-19T11:21:46.317Z,101996.86
2022-12-19T11:29:39.119Z,101999.02
2022-12-19T11:29:46.487Z,102002.64
2022-12-19T11:30:08.857Z,102007.19
2022-12-19T11:30:35.460Z,102016.23
2022-12-19T17:48:54.619Z,101870.03
2022-12-19T17:51:21.966Z,101862.62
2022-12-19T17:53:49.855Z,101860.79
2022-12-19T17:56:17.634Z,101858.80
2022-12-19T17:58:44.321Z,101862.11
2022-12-19T18:01:21.337Z,101858.42
2022-12-19T18:03:48.816Z,101858.21
2022-12-19T18:06:15.706Z,101867.41
2022-12-19T18:08:42.301Z,101867.23
2022-12-19T18:11:20.918Z,101863.19
2022-12-19T18:13:47.754Z,101865.80
2022-12-19T18:16:15.026Z,101867.02
2022-12-19T18:18:41.763Z,101870.36
2022-12-19T18:21:17.753Z,101866.78
2022-12-19T18:23:44.502Z,101861.98
2022-12-19T18:26:11.542Z,101854.11
2022-12-19T18:28:39.123Z,101854.24
2022-12-19T18:31:25.615Z,101854.28
2022-12-19T18:33:52.902Z,101852.77
2022-12-19T18:36:24.326Z,101853.38
2022-12-19T18:38:51.305Z,101845.98
2022-12-19T18:41:18.307Z,101836.88
2022-12-19T18:43:45.113Z,101835.79
2022-12-19T18:46:12.554Z,101837.47
2022-12-19T18:48:39.295Z,101838.90
2022-12-19T18:51:06.068Z,101828.66
2022-12-19T18:53:35.503Z,101831.08
2022-12-19T18:56:03.154Z,101830.42
2022-12-19T18:58:29.856Z,101822.83
2022-12-19T19:00:59.386Z,101823.92
2022-12-19T19:03:29.163Z,101824.09
2022-12-19T19:05:56.025Z,101817.92
2022-12-19T19:08:23.991Z,101817.58
2022-12-19T19:10:59.946Z,101821.27
2022-12-19T19:13:26.906Z,101814.05
2022-12-19T19:15:56.475Z,101816.26
2022-12-19T19:18:29.892Z,101809.57
2022-12-19T19:21:01.068Z,101808.59
2022-12-19T19:23:30.231Z,101806.71
2022-12-19T19:25:57.058Z,101803.58
2022-12-19T19:28:23.679Z,101799.21
2022-12-19T19:30:50.797Z,101801.41
2022-12-19T19:33:19.348Z,101797.23
2022-12-19T19:35:46.741Z,101795.29
2022-12-19T19:38:13.501Z,101803.27
2022-12-19T19:40:40.146Z,101803.10
2022-12-19T19:43:07.157Z,101801.73
2022-12-19T19:45:38.149Z,101804.45
2022-12-19T19:48:10.305Z,101800.44
2022-12-19T19:50:37.140Z,101800.30
2022-12-19T19:53:04.297Z,101797.46
2022-12-19T19:55:31.528Z,101800.35
2022-12-19T19:57:58.405Z,101796.04
2022-12-19T20:00:25.297Z,101796.46
2022-12-19T20:02:52.859Z,101799.15
2022-12-19T20:05:23.022Z,101791.10
2022-12-19T20:07:49.881Z,101793.13
2022-12-19T20:10:16.737Z,101792.64
2022-12-19T20:30:09.088Z,101780.73
2022-12-19T20:32:36.032Z,101772.86
2022-12-19T20:35:02.717Z,101767.66
2022-12-19T20:37:29.671Z,101765.40
2022-12-19T20:39:56.494Z,101765.72
2022-12-19T20:42:23.199Z,101761.13
2022-12-19T20:44:49.893Z,101756.16
2022-12-19T20:47:16.573Z,101758.70
2022-12-19T20:49:44.520Z,101758.98
2022-12-19T20:52:11.683Z,101765.33
2022-12-19T20:54:38.520Z,101767.48
2022-12-19T20:57:05.331Z,101757.27
2022-12-19T20:59:32.013Z,101746.60
2022-12-19T21:02:00.659Z,101739.55
2022-12-19T21:04:27.514Z,101738.90
2022-12-19T21:06:54.577Z,101739.15
2022-12-19T21:09:21.196Z,101734.89
2022-12-19T21:11:47.922Z,101733.35
2022-12-19T21:14:14.576Z,101736.67
2022-12-19T21:16:41.356Z,101736.18
2022-12-19T21:19:08.732Z,101734.11
2022-12-19T21:21:35.454Z,101736.09
2022-12-19T21:24:02.337Z,101734.77
2022-12-19T21:26:29.001Z,101726.46
2022-12-19T21:28:58.020Z,101726.49
2022-12-19T21:31:26.347Z,101720.70
2022-12-19T21:34:00.206Z,101719.29
2022-12-19T21:36:27.747Z,101713.63
2022-12-19T21:38:56.588Z,101707.77
2022-12-19T21:41:23.567Z,101703.20
2022-12-19T21:43:53.554Z,101701.67
2022-12-19T21:46:25.352Z,101698.20
2022-12-19T21:48:53.609Z,101692.74
2022-12-19T21:51:21.537Z,101695.29
2022-12-19T21:53:48.534Z,101689.74
2022-12-19T21:56:20.238Z,101675.81
2022-12-19T21:58:47.039Z,101668.04
2022-12-19T22:01:13.847Z,101664.98
2022-12-19T22:03:40.803Z,101664.30
2022-12-19T22:06:08.866Z,101663.94
2022-12-19T22:08:36.449Z,101666.60
2022-12-19T22:11:03.201Z,101665.23
2022-12-19T22:13:29.924Z,101665.80
2022-12-19T22:16:01.487Z,101661.42
2022-12-19T22:18:28.214Z,101653.34
2022-12-19T22:20:57.319Z,101646.48
2022-12-19T22:23:24.001Z,101646.58
2022-12-19T22:25:53.069Z,101644.85
2022-12-19T22:28:19.706Z,101640.65
2022-12-19T22:30:46.999Z,101638.95
2022-12-19T22:33:13.691Z,101645.21
2022-12-19T22:35:40.443Z,101634.47
2022-12-19T22:38:07.104Z,101632.08
2022-12-19T22:40:34.417Z,101628.95
2022-12-19T22:43:01.120Z,101632.80
2022-12-19T22:45:30.502Z,101624.39
2022-12-19T22:47:57.208Z,101618.14
2022-12-19T22:50:23.910Z,101613.95
2022-12-19T22:52:50.558Z,101607.46
2022-12-19T22:55:17.448Z,101605.71
2022-12-19T22:57:44.029Z,101608.18
2022-12-19T23:00:13.554Z,101600.27
2022-12-19T23:02:43.972Z,101602.98
2022-12-19T23:05:10.896Z,101602.10
2022-12-19T23:07:37.566Z,101602.54
2022-12-19T23:10:04.628Z,101606.33
2022-12-19T23:12:31.320Z,101601.14
2022-12-19T23:14:58.150Z,101605.66
2022-12-19T23:17:24.775Z,101603.67
2022-12-19T23:19:51.423Z,101603.88
2022-12-19T23:22:18.229Z,101597.56
2022-12-19T23:24:44.878Z,101598.80
2022-12-19T23:27:11.540Z,101597.76
2022-12-19T23:29:38.213Z,101596.98
2022-12-19T23:32:05.247Z,101593.39
2022-12-19T23:34:31.975Z,101593.39
2022-12-19T23:37:10.837Z,101591.31
2022-12-19T23:39:38.183Z,101585.09
2022-12-19T23:42:04.924Z,101579.55
2022-12-19T23:44:31.786Z,101578.08
2022-12-19T23:47:02.935Z,101567.56
2022-12-19T23:49:30.531Z,101563.86
2022-12-19T23:51:57.175Z,101563.93
2022-12-19T23:54:23.964Z,101566.20
2022-12-19T23:56:51.492Z,101568.42
2022-12-19T23:59:18.289Z,101562.89
